Nissho Maru No7 — JH3472 — position and weather

sailwx.info

Track history (hours):
 
Tides and Currents Weather Stations Pressure Air Temp Water Temp Dewpoint Dewpoint Depression Visibility Wind Speed Wind Dir Waves Ship Positions

Nissho Maru No7

Last reported at 2015-Mar-28 05:33 UTC. Time now 2015-Mar-28 23:54 UTC.
Position N 34°02' E 135°00'.

Length 71 m; draft 4.8 m.

MMSI: 431200355.

Date/timePositionNaut miles runAvg speedWind from/ knotsBaromVisibWave heightAir tempDewpointWater temp
2015-Mar-28 05:33N 34°02' E 135°00'1111.4
2015-Mar-28 04:33N 34°14' E 134°59'1010.3
2015-Mar-28 03:33N 34°24' E 135°02'1211.5
2015-Mar-28 02:32N 34°31' E 135°14'1010.5
2015-Mar-28 01:33N 34°36' E 135°24'3 0.1
2015-Mar-26 13:17N 34°35' E 135°27'0 0.0
2015-Mar-26 08:33N 34°35' E 135°27'0 0.0
2015-Mar-26 07:19N 34°35' E 135°27'0 0.0
2015-Mar-26 05:33N 34°35' E 135°27'0 0.0
2015-Mar-26 04:32N 34°35' E 135°27'0 0.0
2015-Mar-26 01:33N 34°35' E 135°27'5 5.4
2015-Mar-26 00:33N 34°35' E 135°21'1110.7
2015-Mar-25 23:32N 34°27' E 135°11'1110.2
2015-Mar-25 22:30N 34°20' E 135°02'5 5.6
2015-Mar-25 21:33N 34°15' E 135°04'2 2.2
2015-Mar-25 20:33N 34°15' E 135°07'0 0.0
2015-Mar-25 19:33N 34°15' E 135°07'0 0.0
2015-Mar-25 18:33N 34°15' E 135°07'0 0.0
2015-Mar-25 17:33N 34°15' E 135°07'0 0.1
2015-Mar-25 16:33N 34°15' E 135°07'0 0.0
2015-Mar-25 15:33N 34°15' E 135°07'0 0.0
2015-Mar-25 14:33N 34°15' E 135°07'1 0.6
2015-Mar-25 13:33N 34°14' E 135°07'0 0.5
2015-Mar-25 12:33N 34°15' E 135°06'0 0.0
2015-Mar-25 11:33N 34°15' E 135°06'0 0.0
2015-Mar-25 10:33N 34°15' E 135°06'0 0.0
2015-Mar-25 09:33N 34°15' E 135°06'0 0.1
2015-Mar-25 08:33N 34°15' E 135°06'0 0.0
2015-Mar-25 07:33N 34°15' E 135°06'2 2.5
2015-Mar-25 06:33N 34°15' E 135°03'9 9.0
2015-Mar-25 05:32N 34°24' E 135°03'1212.2
2015-Mar-25 04:33N 34°31' E 135°15'10 0.5
2015-Mar-24 07:32N 34°35' E 135°26'0 0.1
2015-Mar-24 06:33N 34°35' E 135°26'0 0.1
2015-Mar-24 05:33N 34°35' E 135°26'0 0.0
2015-Mar-24 04:33N 34°35' E 135°26'0 0.0
2015-Mar-24 03:33N 34°35' E 135°26'0 0.0
2015-Mar-23 23:32N 34°35' E 135°26'5 4.8
2015-Mar-23 22:33N 34°35' E 135°20'1110.2
2015-Mar-23 21:31N 34°27' E 135°11'10 9.5
2015-Mar-23 20:25N 34°20' E 135°02'7 7.8
2015-Mar-23 19:33N 34°14' E 134°60'10 9.6
2015-Mar-23 18:33N 34°04' E 135°01'  
2015-Mar-19 22:09N 34°00' E 135°02'711.0
2015-Mar-19 21:33N 34°07' E 135°03'6 5.5
2015-Mar-19 20:33N 34°10' E 135°09'0 0.0
2015-Mar-19 19:33N 34°10' E 135°09'0 0.0
2015-Mar-19 18:33N 34°10' E 135°09'0 0.0
2015-Mar-19 17:33N 34°10' E 135°09'0 0.0
2015-Mar-19 16:33N 34°10' E 135°09'0 0.0
2015-Mar-19 15:24N 34°10' E 135°09'0 0.0
2015-Mar-19 14:30N 34°10' E 135°09'0 0.0
2015-Mar-19 13:30N 34°10' E 135°09'0 0.0
2015-Mar-19 12:30N 34°10' E 135°09'0 0.0
2015-Mar-19 11:30N 34°10' E 135°09'0 0.0
2015-Mar-19 10:33N 34°10' E 135°09'0 0.0
2015-Mar-19 09:33N 34°10' E 135°09'0 0.1
2015-Mar-19 08:33N 34°10' E 135°09'0 0.0
2015-Mar-19 07:33N 34°10' E 135°09'0 0.0
2015-Mar-19 06:33N 34°10' E 135°09'0 0.0
2015-Mar-19 05:33N 34°10' E 135°09'0 0.0
2015-Mar-19 04:27N 34°10' E 135°09'0 0.0
2015-Mar-19 03:33N 34°10' E 135°09'0 0.0
2015-Mar-19 02:33N 34°10' E 135°09'0 0.0
2015-Mar-19 01:33N 34°10' E 135°09'0 0.0
2015-Mar-19 00:33N 34°10' E 135°09'0 0.0
2015-Mar-18 23:33N 34°10' E 135°09'0 0.0
2015-Mar-18 22:33N 34°10' E 135°09'0 0.0
2015-Mar-18 21:33N 34°10' E 135°09'0 0.0
2015-Mar-18 20:33N 34°10' E 135°09'0 0.0
2015-Mar-18 19:33N 34°10' E 135°09'0 0.0
2015-Mar-18 18:33N 34°10' E 135°09'0 0.0
2015-Mar-18 17:33N 34°10' E 135°09'0 0.0
2015-Mar-18 16:33N 34°10' E 135°09'0 0.0
2015-Mar-18 15:33N 34°10' E 135°09'0 0.0
2015-Mar-18 14:30N 34°10' E 135°09'0 0.0
2015-Mar-18 13:31N 34°10' E 135°09'6 6.0
2015-Mar-18 12:34N 34°13' E 135°04'11 9.5
2015-Mar-18 11:26N 34°24' E 135°01'1010.6
2015-Mar-18 10:29N 34°34' E 135°04'  
Track history (hours):
 
Tides and Currents Weather Stations Pressure Air Temp Water Temp Dewpoint Dewpoint Depression Visibility Wind Speed Wind Dir Waves Ship Positions

Nissho Maru No7

Last reported at 2015-Mar-28 05:33 UTC. Time now 2015-Mar-28 23:54 UTC.
Position N 34°02' E 135°00'.

Length 71 m; draft 4.8 m.

MMSI: 431200355.

Date/timePositionNaut miles runAvg speedWind from/ knotsBaromVisibWave heightAir tempDewpointWater temp
2015-Mar-28 05:33N 34°02' E 135°00'1111.4
2015-Mar-28 04:33N 34°14' E 134°59'1010.3
2015-Mar-28 03:33N 34°24' E 135°02'1211.5
2015-Mar-28 02:32N 34°31' E 135°14'1010.5
2015-Mar-28 01:33N 34°36' E 135°24'3 0.1
2015-Mar-26 13:17N 34°35' E 135°27'0 0.0
2015-Mar-26 08:33N 34°35' E 135°27'0 0.0
2015-Mar-26 07:19N 34°35' E 135°27'0 0.0
2015-Mar-26 05:33N 34°35' E 135°27'0 0.0
2015-Mar-26 04:32N 34°35' E 135°27'0 0.0
2015-Mar-26 01:33N 34°35' E 135°27'5 5.4
2015-Mar-26 00:33N 34°35' E 135°21'1110.7
2015-Mar-25 23:32N 34°27' E 135°11'1110.2
2015-Mar-25 22:30N 34°20' E 135°02'5 5.6
2015-Mar-25 21:33N 34°15' E 135°04'2 2.2
2015-Mar-25 20:33N 34°15' E 135°07'0 0.0
2015-Mar-25 19:33N 34°15' E 135°07'0 0.0
2015-Mar-25 18:33N 34°15' E 135°07'0 0.0
2015-Mar-25 17:33N 34°15' E 135°07'0 0.1
2015-Mar-25 16:33N 34°15' E 135°07'0 0.0
2015-Mar-25 15:33N 34°15' E 135°07'0 0.0
2015-Mar-25 14:33N 34°15' E 135°07'1 0.6
2015-Mar-25 13:33N 34°14' E 135°07'0 0.5
2015-Mar-25 12:33N 34°15' E 135°06'0 0.0
2015-Mar-25 11:33N 34°15' E 135°06'0 0.0
2015-Mar-25 10:33N 34°15' E 135°06'0 0.0
2015-Mar-25 09:33N 34°15' E 135°06'0 0.1
2015-Mar-25 08:33N 34°15' E 135°06'0 0.0
2015-Mar-25 07:33N 34°15' E 135°06'2 2.5
2015-Mar-25 06:33N 34°15' E 135°03'9 9.0
2015-Mar-25 05:32N 34°24' E 135°03'1212.2
2015-Mar-25 04:33N 34°31' E 135°15'10 0.5
2015-Mar-24 07:32N 34°35' E 135°26'0 0.1
2015-Mar-24 06:33N 34°35' E 135°26'0 0.1
2015-Mar-24 05:33N 34°35' E 135°26'0 0.0
2015-Mar-24 04:33N 34°35' E 135°26'0 0.0
2015-Mar-24 03:33N 34°35' E 135°26'0 0.0
2015-Mar-23 23:32N 34°35' E 135°26'5 4.8
2015-Mar-23 22:33N 34°35' E 135°20'1110.2
2015-Mar-23 21:31N 34°27' E 135°11'10 9.5
2015-Mar-23 20:25N 34°20' E 135°02'7 7.8
2015-Mar-23 19:33N 34°14' E 134°60'10 9.6
2015-Mar-23 18:33N 34°04' E 135°01'  
2015-Mar-19 22:09N 34°00' E 135°02'711.0
2015-Mar-19 21:33N 34°07' E 135°03'6 5.5
2015-Mar-19 20:33N 34°10' E 135°09'0 0.0
2015-Mar-19 19:33N 34°10' E 135°09'0 0.0
2015-Mar-19 18:33N 34°10' E 135°09'0 0.0
2015-Mar-19 17:33N 34°10' E 135°09'0 0.0
2015-Mar-19 16:33N 34°10' E 135°09'0 0.0
2015-Mar-19 15:24N 34°10' E 135°09'0 0.0
2015-Mar-19 14:30N 34°10' E 135°09'0 0.0
2015-Mar-19 13:30N 34°10' E 135°09'0 0.0
2015-Mar-19 12:30N 34°10' E 135°09'0 0.0
2015-Mar-19 11:30N 34°10' E 135°09'0 0.0
2015-Mar-19 10:33N 34°10' E 135°09'0 0.0
2015-Mar-19 09:33N 34°10' E 135°09'0 0.1
2015-Mar-19 08:33N 34°10' E 135°09'0 0.0
2015-Mar-19 07:33N 34°10' E 135°09'0 0.0
2015-Mar-19 06:33N 34°10' E 135°09'0 0.0
2015-Mar-19 05:33N 34°10' E 135°09'0 0.0
2015-Mar-19 04:27N 34°10' E 135°09'0 0.0
2015-Mar-19 03:33N 34°10' E 135°09'0 0.0
2015-Mar-19 02:33N 34°10' E 135°09'0 0.0
2015-Mar-19 01:33N 34°10' E 135°09'0 0.0
2015-Mar-19 00:33N 34°10' E 135°09'0 0.0
2015-Mar-18 23:33N 34°10' E 135°09'0 0.0
2015-Mar-18 22:33N 34°10' E 135°09'0 0.0
2015-Mar-18 21:33N 34°10' E 135°09'0 0.0
2015-Mar-18 20:33N 34°10' E 135°09'0 0.0
2015-Mar-18 19:33N 34°10' E 135°09'0 0.0
2015-Mar-18 18:33N 34°10' E 135°09'0 0.0
2015-Mar-18 17:33N 34°10' E 135°09'0 0.0
2015-Mar-18 16:33N 34°10' E 135°09'0 0.0
2015-Mar-18 15:33N 34°10' E 135°09'0 0.0
2015-Mar-18 14:30N 34°10' E 135°09'0 0.0
2015-Mar-18 13:31N 34°10' E 135°09'6 6.0
2015-Mar-18 12:34N 34°13' E 135°04'11 9.5
2015-Mar-18 11:26N 34°24' E 135°01'1010.6
2015-Mar-18 10:29N 34°34' E 135°04'  

Dump ship's entire track history